createdAt,value
2018-05-06T00:00:46.901Z,15.40
2018-05-06T00:03:14.697Z,15.40
2018-05-06T00:05:43.350Z,15.30
2018-05-06T00:08:11.221Z,15.30
2018-05-06T00:10:39.083Z,15.30
2018-05-06T00:13:06.950Z,15.40
2018-05-06T00:15:34.920Z,15.40
2018-05-06T00:18:02.785Z,15.30
2018-05-06T00:20:30.653Z,15.30
2018-05-06T00:22:59.339Z,15.20
2018-05-06T00:25:27.205Z,15.20
2018-05-06T00:27:55.071Z,15.20
2018-05-06T00:30:22.937Z,15.20
2018-05-06T00:32:50.804Z,15.30
2018-05-06T00:35:18.775Z,15.20
2018-05-06T00:37:46.640Z,15.20
2018-05-06T00:40:14.505Z,15.20
2018-05-06T00:42:42.475Z,15.20
2018-05-06T00:45:10.341Z,15.10
2018-05-06T00:47:38.208Z,15.10
2018-05-06T00:50:06.077Z,15.10
2018-05-06T00:52:33.941Z,15.10
2018-05-06T00:55:01.812Z,15.10
2018-05-06T00:57:29.674Z,15.10
2018-05-06T00:59:57.541Z,15.10
2018-05-06T01:02:25.416Z,15.00
2018-05-06T01:04:53.276Z,15.00
2018-05-06T01:07:21.243Z,15.00
2018-05-06T01:09:49.109Z,14.90
2018-05-06T01:12:16.976Z,14.90
2018-05-06T01:14:44.842Z,14.80
2018-05-06T01:17:12.712Z,14.80
2018-05-06T01:19:40.576Z,14.80
2018-05-06T01:22:08.520Z,14.80
2018-05-06T01:24:36.413Z,14.80
2018-05-06T01:27:04.381Z,14.80
2018-05-06T01:29:32.249Z,14.80
2018-05-06T01:32:00.118Z,14.70
2018-05-06T01:34:27.981Z,14.70
2018-05-06T01:36:55.849Z,14.70
2018-05-06T01:39:23.713Z,14.70
2018-05-06T01:41:51.478Z,14.60
2018-05-06T01:44:19.447Z,14.60
2018-05-06T01:46:47.312Z,14.60
2018-05-06T01:49:15.180Z,14.50
2018-05-06T01:51:43.046Z,14.50
2018-05-06T01:54:12.002Z,14.40
2018-05-06T01:56:41.377Z,14.40
2018-05-06T01:59:11.794Z,14.40
2018-05-06T02:01:40.453Z,14.40
2018-05-06T02:04:08.318Z,14.40
2018-05-06T02:06:36.184Z,14.40
2018-05-06T02:09:04.257Z,14.40
2018-05-06T02:11:32.122Z,14.40
2018-05-06T02:13:59.989Z,14.30
2018-05-06T02:16:27.855Z,14.30
2018-05-06T02:18:55.723Z,14.30
2018-05-06T02:21:23.517Z,14.30
2018-05-06T02:23:51.459Z,14.30
2018-05-06T02:26:19.323Z,14.30
2018-05-06T02:28:47.188Z,14.30
2018-05-06T02:31:15.055Z,14.30
2018-05-06T02:33:42.923Z,14.30
2018-05-06T02:36:10.789Z,14.30
2018-05-06T02:38:38.658Z,14.30
2018-05-06T02:41:06.521Z,14.30
2018-05-06T02:43:34.389Z,14.20
2018-05-06T02:46:02.259Z,14.30
2018-05-06T02:48:30.226Z,14.30
2018-05-06T02:50:58.096Z,14.30
2018-05-06T02:53:25.856Z,14.30
2018-05-06T02:55:53.721Z,14.30
2018-05-06T02:58:21.588Z,14.30
2018-05-06T03:00:49.454Z,14.30
2018-05-06T03:03:17.320Z,14.30
2018-05-06T03:05:45.217Z,14.20
2018-05-06T03:08:13.872Z,14.20
2018-05-06T03:10:41.735Z,14.10
2018-05-06T03:13:09.606Z,14.20
2018-05-06T03:15:37.472Z,14.10
2018-05-06T03:18:05.339Z,14.10
2018-05-06T03:20:33.205Z,14.10
2018-05-06T03:23:01.072Z,14.10
2018-05-06T03:25:29.553Z,14.10
2018-05-06T03:27:57.419Z,14.10
2018-05-06T03:30:25.291Z,14.10
2018-05-06T03:32:53.155Z,14.10
2018-05-06T03:35:21.022Z,14.10
2018-05-06T03:37:48.887Z,14.10
2018-05-06T03:40:16.751Z,14.10
2018-05-06T03:42:44.618Z,14.10
2018-05-06T03:45:12.485Z,14.10
2018-05-06T03:47:40.351Z,14.10
2018-05-06T03:50:08.222Z,14.10
2018-05-06T03:52:36.186Z,14.10
2018-05-06T03:55:04.085Z,14.10
2018-05-06T04:00:45.692Z,14.20
2018-05-06T04:03:13.631Z,14.10
2018-05-06T04:05:41.630Z,14.20
2018-05-06T04:08:09.569Z,14.20
2018-05-06T04:10:38.254Z,14.20
2018-05-06T04:13:06.121Z,14.10
2018-05-06T04:15:33.987Z,14.20
2018-05-06T04:18:01.854Z,14.20
2018-05-06T04:20:29.721Z,14.20
2018-05-06T04:22:57.592Z,14.20
2018-05-06T04:25:25.453Z,14.20
2018-05-06T04:27:53.321Z,14.20
2018-05-06T04:30:21.291Z,14.20
2018-05-06T04:32:49.259Z,14.20
2018-05-06T04:35:17.126Z,14.20
2018-05-06T04:37:44.991Z,14.20
2018-05-06T04:40:12.857Z,14.20
2018-05-06T04:42:40.725Z,14.30
2018-05-06T04:45:08.664Z,14.20
2018-05-06T04:47:36.559Z,14.30
2018-05-06T04:50:04.427Z,14.30
2018-05-06T04:52:32.295Z,14.30
2018-05-06T04:55:00.159Z,14.40
2018-05-06T04:57:27.956Z,14.40
2018-05-06T04:59:56.610Z,14.50
2018-05-06T05:02:24.476Z,14.50
2018-05-06T05:04:52.345Z,14.50
2018-05-06T05:07:20.212Z,14.50
2018-05-06T05:09:48.076Z,14.60
2018-05-06T05:12:15.942Z,14.50
2018-05-06T05:14:43.809Z,14.60
2018-05-06T05:17:11.675Z,14.70
2018-05-06T05:19:39.541Z,14.70
2018-05-06T05:22:07.408Z,14.70
2018-05-06T05:24:35.276Z,14.80
2018-05-06T05:27:03.141Z,14.80
2018-05-06T05:29:31.008Z,14.80
2018-05-06T05:31:58.875Z,14.90
2018-05-06T05:34:26.757Z,14.90
2018-05-06T05:36:54.539Z,14.90
2018-05-06T05:39:23.198Z,15.00
2018-05-06T05:41:51.057Z,15.00
2018-05-06T05:44:18.923Z,15.00
2018-05-06T05:46:46.790Z,15.10
2018-05-06T05:49:14.657Z,15.10
2018-05-06T05:51:42.523Z,15.10
2018-05-06T05:54:10.391Z,15.10
2018-05-06T05:56:38.257Z,15.20
2018-05-06T05:59:06.942Z,15.20
2018-05-06T06:01:34.896Z,15.20
2018-05-06T06:04:03.499Z,15.30
2018-05-06T06:06:31.362Z,15.30
2018-05-06T06:08:59.337Z,15.30
2018-05-06T06:11:27.298Z,15.40
2018-05-06T06:13:55.166Z,15.40
2018-05-06T06:16:22.931Z,15.40
2018-05-06T06:18:50.797Z,15.50
2018-05-06T06:21:18.663Z,15.60
2018-05-06T06:23:46.530Z,15.60
2018-05-06T06:26:14.396Z,15.70
2018-05-06T06:28:42.265Z,15.70
2018-05-06T06:31:10.198Z,15.80
2018-05-06T06:33:38.098Z,15.80
2018-05-06T06:36:05.965Z,15.90
2018-05-06T06:38:33.934Z,15.90
2018-05-06T06:41:01.801Z,16.00
2018-05-06T06:43:29.668Z,16.10
2018-05-06T06:45:57.533Z,16.20
2018-05-06T06:48:25.403Z,16.40
2018-05-06T06:50:53.266Z,16.50
2018-05-06T06:53:21.134Z,16.60
2018-05-06T06:55:49.085Z,16.80
2018-05-06T06:58:17.686Z,17.40
2018-05-06T07:00:45.555Z,17.40
2018-05-06T07:03:13.418Z,19.00
2018-05-06T07:05:41.287Z,21.60
2018-05-06T07:08:09.153Z,23.80
2018-05-06T07:10:37.022Z,25.60
2018-05-06T07:13:04.884Z,27.00
2018-05-06T07:15:32.751Z,28.40
2018-05-06T07:18:00.619Z,29.20
2018-05-06T07:20:28.485Z,30.10
2018-05-06T07:22:56.281Z,30.60
2018-05-06T07:25:24.218Z,30.30
2018-05-06T07:27:52.085Z,30.40
2018-05-06T07:30:20.053Z,30.70
2018-05-06T07:32:47.880Z,30.60
2018-05-06T07:35:15.786Z,30.80
2018-05-06T07:37:43.653Z,31.20
2018-05-06T07:40:11.621Z,31.60
2018-05-06T07:42:39.490Z,31.90
2018-05-06T07:45:07.356Z,32.30
2018-05-06T07:47:35.221Z,32.20
2018-05-06T07:50:03.190Z,32.70
2018-05-06T07:52:31.057Z,32.60
2018-05-06T07:54:58.820Z,32.90
2018-05-06T07:57:26.687Z,33.50
2018-05-06T07:59:54.528Z,33.80
2018-05-06T08:02:22.351Z,34.30
2018-05-06T08:04:50.185Z,35.10
2018-05-06T08:07:18.052Z,35.50
2018-05-06T08:09:45.845Z,35.90
2018-05-06T08:12:13.681Z,35.90
2018-05-06T08:14:41.553Z,36.30
2018-05-06T08:17:09.300Z,36.60
2018-05-06T08:19:37.180Z,36.90
2018-05-06T08:22:05.045Z,37.00
2018-05-06T08:24:33.015Z,37.20
2018-05-06T08:27:00.810Z,37.20
2018-05-06T08:29:29.465Z,37.60
2018-05-06T08:31:57.332Z,37.60
2018-05-06T08:34:25.128Z,37.80
2018-05-06T08:36:53.171Z,36.90
2018-05-06T08:39:21.074Z,36.70
2018-05-06T08:41:49.719Z,36.50
2018-05-06T08:44:17.586Z,36.40
2018-05-06T08:46:45.452Z,36.60
2018-05-06T08:49:13.397Z,37.20
2018-05-06T08:51:41.165Z,37.50
2018-05-06T08:54:08.938Z,37.60
2018-05-06T08:56:36.690Z,37.30
2018-05-06T08:59:04.472Z,37.60
2018-05-06T09:01:32.284Z,37.60
2018-05-06T09:04:00.830Z,37.70
2018-05-06T09:06:28.709Z,37.70
2018-05-06T09:08:57.438Z,37.60
2018-05-06T09:11:25.261Z,37.60
2018-05-06T09:13:53.024Z,37.80
2018-05-06T09:16:20.789Z,37.70
2018-05-06T09:18:48.553Z,38.40
2018-05-06T09:21:16.323Z,38.60
2018-05-06T09:23:44.138Z,38.70
2018-05-06T09:26:12.653Z,38.40
2018-05-06T09:28:40.421Z,38.50
2018-05-06T09:31:08.257Z,38.50
2018-05-06T09:33:36.077Z,38.50
2018-05-06T09:36:04.012Z,38.40
2018-05-06T09:38:31.882Z,38.40
2018-05-06T09:40:59.745Z,38.50
2018-05-06T09:43:27.612Z,38.00
2018-05-06T09:45:55.478Z,38.00
2018-05-06T09:48:23.346Z,37.60
2018-05-06T09:50:51.142Z,37.60
2018-05-06T09:53:19.077Z,37.60
2018-05-06T09:55:46.957Z,38.00
2018-05-06T09:58:14.811Z,38.10
2018-05-06T10:00:42.768Z,38.00
2018-05-06T10:03:10.534Z,37.80
2018-05-06T10:05:38.289Z,37.80
2018-05-06T10:08:06.203Z,37.50
2018-05-06T10:10:33.970Z,37.50
2018-05-06T10:13:01.729Z,37.10
2018-05-06T10:15:29.483Z,36.70
2018-05-06T10:17:57.252Z,36.40
2018-05-06T10:20:25.098Z,36.00
2018-05-06T10:22:52.966Z,35.30
2018-05-06T10:25:20.716Z,34.70
2018-05-06T10:27:48.469Z,33.90
2018-05-06T10:30:16.237Z,33.10
2018-05-06T10:32:43.998Z,32.30
2018-05-06T10:35:11.887Z,31.50
2018-05-06T10:37:39.758Z,30.70
2018-05-06T10:40:07.621Z,30.10
2018-05-06T10:42:35.487Z,29.60
2018-05-06T10:45:03.301Z,29.00
2018-05-06T10:47:31.821Z,28.20
2018-05-06T10:49:59.577Z,28.20
2018-05-06T10:52:27.381Z,28.00
2018-05-06T10:54:55.177Z,27.70
2018-05-06T10:57:23.733Z,27.20
2018-05-06T10:59:51.485Z,27.20
2018-05-06T11:02:19.247Z,27.00
2018-05-06T11:04:47.002Z,27.00
2018-05-06T11:07:14.753Z,26.80
2018-05-06T11:09:42.540Z,26.70
2018-05-06T11:12:10.310Z,26.50
2018-05-06T11:14:38.070Z,26.20
2018-05-06T11:17:05.852Z,26.20
2018-05-06T11:19:33.677Z,26.10
2018-05-06T11:22:01.433Z,26.00
2018-05-06T11:24:29.281Z,25.90
2018-05-06T11:26:57.081Z,25.90
2018-05-06T11:29:24.828Z,25.90
2018-05-06T11:31:52.657Z,25.90
2018-05-06T11:34:21.168Z,25.90
2018-05-06T11:36:48.920Z,25.80
2018-05-06T11:39:16.668Z,25.70
2018-05-06T11:41:45.195Z,25.60
2018-05-06T11:44:12.955Z,25.60
2018-05-06T11:46:40.745Z,25.40
2018-05-06T11:49:08.501Z,25.40
2018-05-06T11:51:36.251Z,25.40
2018-05-06T11:54:04.008Z,25.40
2018-05-06T11:56:31.776Z,25.40
2018-05-06T11:58:59.528Z,25.30
2018-05-06T12:01:27.332Z,25.20
2018-05-06T12:03:55.598Z,25.20
2018-05-06T12:06:23.920Z,25.10
2018-05-06T12:08:52.456Z,24.90
2018-05-06T12:11:21.141Z,24.80
2018-05-06T12:13:49.069Z,24.80
2018-05-06T12:16:16.820Z,24.80
2018-05-06T12:18:45.970Z,24.70
2018-05-06T12:21:13.719Z,24.70
2018-05-06T12:23:41.513Z,24.60
2018-05-06T12:26:09.273Z,24.60
2018-05-06T12:28:37.038Z,24.60
2018-05-06T12:31:04.809Z,24.60
2018-05-06T12:33:32.572Z,24.50
2018-05-06T12:36:00.390Z,24.50
2018-05-06T12:38:28.162Z,24.40
2018-05-06T12:40:55.922Z,24.40
2018-05-06T12:43:23.878Z,24.30
2018-05-06T12:45:52.502Z,24.20
2018-05-06T12:48:20.369Z,24.20
2018-05-06T12:50:48.440Z,24.20
2018-05-06T12:53:16.233Z,24.20
2018-05-06T12:55:44.072Z,24.10
2018-05-06T12:58:11.940Z,24.10
2018-05-06T13:00:39.701Z,24.10
2018-05-06T13:03:07.496Z,24.10
2018-05-06T13:05:35.333Z,24.10
2018-05-06T13:08:03.092Z,24.10
2018-05-06T13:10:30.963Z,24.00
2018-05-06T13:12:58.829Z,23.90
2018-05-06T13:15:26.696Z,23.90
2018-05-06T13:17:54.565Z,23.90
2018-05-06T13:20:22.531Z,23.90
2018-05-06T13:22:50.325Z,23.90
2018-05-06T13:25:19.595Z,23.80
2018-05-06T13:27:47.565Z,23.80
2018-05-06T13:30:15.430Z,23.80
2018-05-06T13:32:43.400Z,23.80
2018-05-06T13:35:11.296Z,23.80
2018-05-06T13:37:39.235Z,23.80
2018-05-06T13:40:07.102Z,23.80
2018-05-06T13:42:34.969Z,23.80
2018-05-06T13:45:02.759Z,23.80
2018-05-06T13:47:30.732Z,23.70
2018-05-06T13:49:58.681Z,23.70
2018-05-06T13:52:27.255Z,23.60
2018-05-06T13:54:55.121Z,23.60
2018-05-06T13:57:23.091Z,23.60
2018-05-06T13:59:50.956Z,23.50
2018-05-06T14:02:18.823Z,23.50
2018-05-06T14:04:46.615Z,23.50
2018-05-06T14:07:15.886Z,23.50
2018-05-06T14:09:43.757Z,23.50
2018-05-06T14:12:11.621Z,23.40
2018-05-06T14:14:39.487Z,23.30
2018-05-06T14:17:07.353Z,23.30
2018-05-06T14:19:35.220Z,23.20
2018-05-06T14:22:02.973Z,23.10
2018-05-06T14:24:30.777Z,23.00
2018-05-06T14:26:58.717Z,23.10
2018-05-06T14:29:26.587Z,23.00
2018-05-06T14:31:54.450Z,23.00
2018-05-06T14:34:22.318Z,22.90
2018-05-06T14:36:50.190Z,22.90
2018-05-06T14:39:17.981Z,22.80
2018-05-06T14:41:45.814Z,22.70
2018-05-06T14:44:13.680Z,22.70
2018-05-06T14:46:53.425Z,22.60
2018-05-06T14:49:21.186Z,22.50
2018-05-06T14:51:48.960Z,22.50
2018-05-06T14:54:16.820Z,22.50
2018-05-06T14:56:44.693Z,22.40
2018-05-06T14:59:13.941Z,22.40
2018-05-06T15:01:42.164Z,22.30
2018-05-06T15:04:09.909Z,22.30
2018-05-06T15:06:37.742Z,22.30
2018-05-06T15:09:06.292Z,22.20
2018-05-06T15:11:34.948Z,22.20
2018-05-06T15:14:03.296Z,22.10
2018-05-06T15:16:31.049Z,22.10
2018-05-06T15:18:59.573Z,22.00
2018-05-06T15:21:27.360Z,22.00
2018-05-06T15:23:55.143Z,22.00
2018-05-06T15:26:22.904Z,21.90
2018-05-06T15:28:50.722Z,21.90
2018-05-06T15:31:18.487Z,21.80
2018-05-06T15:33:46.304Z,21.80
2018-05-06T15:36:14.968Z,21.60
2018-05-06T15:38:42.725Z,21.60
2018-05-06T15:41:10.536Z,21.60
2018-05-06T15:43:39.203Z,21.50
2018-05-06T15:46:07.030Z,21.50
2018-05-06T15:48:34.799Z,21.50
2018-05-06T15:51:02.568Z,21.40
2018-05-06T15:53:30.340Z,21.40
2018-05-06T15:55:58.141Z,21.40
2018-05-06T15:58:26.883Z,21.30
2018-05-06T16:00:54.664Z,21.30
2018-05-06T16:03:34.077Z,21.20
2018-05-06T16:06:01.833Z,21.20
2018-05-06T16:08:29.590Z,21.20
2018-05-06T16:10:57.354Z,21.10
2018-05-06T16:13:25.105Z,21.10
2018-05-06T16:15:52.860Z,21.10
2018-05-06T16:18:20.893Z,21.00
2018-05-06T16:20:48.841Z,21.00
2018-05-06T16:23:16.592Z,20.90
2018-05-06T16:25:44.375Z,20.90
2018-05-06T16:28:12.158Z,20.80
2018-05-06T16:30:39.921Z,20.80
2018-05-06T16:33:07.696Z,20.70
2018-05-06T16:35:35.446Z,20.70
2018-05-06T16:38:03.237Z,20.70
2018-05-06T16:40:32.790Z,20.60
2018-05-06T16:43:00.558Z,20.60
2018-05-06T16:45:28.334Z,20.60
2018-05-06T16:47:56.088Z,20.50
2018-05-06T16:50:23.874Z,20.50
2018-05-06T16:52:51.633Z,20.40
2018-05-06T16:55:19.392Z,20.40
2018-05-06T16:57:47.156Z,20.40
2018-05-06T17:00:14.942Z,20.40
2018-05-06T17:02:43.490Z,20.30
2018-05-06T17:05:11.358Z,20.30
2018-05-06T17:07:39.174Z,20.20
2018-05-06T17:10:07.740Z,20.10
2018-05-06T17:12:36.521Z,20.10
2018-05-06T17:15:03.348Z,20.10
2018-05-06T17:17:31.121Z,20.10
2018-05-06T17:19:58.940Z,20.00
2018-05-06T17:22:26.701Z,20.00
2018-05-06T17:24:54.527Z,19.90
2018-05-06T17:27:22.333Z,19.90
2018-05-06T17:29:50.336Z,19.80
2018-05-06T17:32:18.615Z,19.80
2018-05-06T17:34:46.513Z,19.80
2018-05-06T17:37:14.739Z,19.70
2018-05-06T17:39:42.667Z,19.60
2018-05-06T17:42:11.397Z,19.60
2018-05-06T17:44:39.425Z,19.50
2018-05-06T17:47:08.267Z,19.50
2018-05-06T17:49:37.554Z,19.40
2018-05-06T17:52:05.470Z,19.40
2018-05-06T17:54:34.204Z,19.30
2018-05-06T17:57:02.305Z,19.30
2018-05-06T17:59:30.128Z,19.30
2018-05-06T18:01:57.990Z,19.30
2018-05-06T18:04:25.889Z,19.20
2018-05-06T18:06:53.767Z,19.10
2018-05-06T18:09:22.634Z,19.10
2018-05-06T18:11:50.724Z,19.00
2018-05-06T18:14:19.477Z,19.00
2018-05-06T18:16:47.280Z,18.90
2018-05-06T18:19:15.405Z,18.90
2018-05-06T18:21:44.237Z,18.80
2018-05-06T18:24:12.410Z,18.70
2018-05-06T18:26:40.206Z,18.80
2018-05-06T18:29:08.225Z,18.70
2018-05-06T18:31:36.402Z,18.70
2018-05-06T18:34:04.731Z,18.60
2018-05-06T18:36:33.817Z,18.60
2018-05-06T18:39:02.009Z,18.60
2018-05-06T18:41:30.853Z,18.50
2018-05-06T18:43:59.033Z,18.50
2018-05-06T18:46:27.156Z,18.50
2018-05-06T18:48:55.380Z,18.50
2018-05-06T18:51:24.131Z,18.40
2018-05-06T18:53:52.052Z,18.40
2018-05-06T18:56:20.317Z,18.40
2018-05-06T18:58:48.538Z,18.30
2018-05-06T19:01:16.378Z,18.30
2018-05-06T19:03:44.209Z,18.20
2018-05-06T19:06:12.785Z,18.20
2018-05-06T19:08:40.546Z,18.20
2018-05-06T19:11:08.317Z,18.20
2018-05-06T19:13:36.065Z,18.20
2018-05-06T19:16:03.839Z,18.20
2018-05-06T19:18:31.588Z,18.20
2018-05-06T19:20:59.344Z,18.10
2018-05-06T19:23:27.104Z,18.10
2018-05-06T19:25:54.929Z,18.10
2018-05-06T19:28:22.779Z,18.10
2018-05-06T19:30:50.532Z,18.00
2018-05-06T19:33:18.410Z,18.00
2018-05-06T19:35:46.165Z,18.00
2018-05-06T19:38:14.046Z,18.00
2018-05-06T19:40:42.565Z,17.90
2018-05-06T19:43:11.088Z,17.90
2018-05-06T19:45:38.856Z,17.90
2018-05-06T19:48:06.616Z,17.90
2018-05-06T19:50:34.392Z,17.90
2018-05-06T19:53:02.170Z,17.90
2018-05-06T19:55:30.631Z,17.80
2018-05-06T19:57:58.396Z,17.80
2018-05-06T20:00:26.173Z,17.80
2018-05-06T20:02:53.917Z,17.80
2018-05-06T20:05:21.677Z,17.80
2018-05-06T20:07:49.523Z,17.80
2018-05-06T20:10:17.273Z,17.70
2018-05-06T20:12:45.801Z,17.70
2018-05-06T20:15:13.545Z,17.70
2018-05-06T20:17:41.339Z,17.70
2018-05-06T20:20:09.088Z,17.60
2018-05-06T20:22:37.096Z,17.60
2018-05-06T20:25:04.897Z,17.60
2018-05-06T20:27:32.689Z,17.60
2018-05-06T20:30:00.484Z,17.60
2018-05-06T20:32:28.261Z,17.60
2018-05-06T20:34:56.051Z,17.60
2018-05-06T20:37:24.579Z,17.50
2018-05-06T20:39:52.446Z,17.50
2018-05-06T20:42:20.210Z,17.50
2018-05-06T20:44:47.983Z,17.50
2018-05-06T20:47:15.741Z,17.50
2018-05-06T20:49:43.501Z,17.40
2018-05-06T20:52:11.283Z,17.40
2018-05-06T20:54:39.032Z,17.40
2018-05-06T20:57:06.897Z,17.40
2018-05-06T20:59:34.765Z,17.40
2018-05-06T21:02:02.835Z,17.40
2018-05-06T21:04:31.299Z,17.30
2018-05-06T21:07:00.718Z,17.30
2018-05-06T21:09:28.605Z,17.30
2018-05-06T21:11:56.554Z,17.30
2018-05-06T21:14:25.407Z,17.20
2018-05-06T21:16:53.446Z,17.30
2018-05-06T21:19:22.100Z,17.20
2018-05-06T21:21:49.997Z,17.20
2018-05-06T21:24:17.935Z,17.10
2018-05-06T21:26:45.802Z,17.10
2018-05-06T21:29:13.573Z,17.10
2018-05-06T21:31:41.335Z,17.10
2018-05-06T21:34:09.090Z,17.00
2018-05-06T21:36:36.889Z,17.10
2018-05-06T21:39:05.713Z,17.00
2018-05-06T21:41:34.456Z,17.00
2018-05-06T21:44:02.223Z,17.00
2018-05-06T21:46:30.553Z,17.00
2018-05-06T21:48:59.092Z,16.90
2018-05-06T21:51:26.840Z,16.90
2018-05-06T21:53:54.605Z,16.90
2018-05-06T21:56:22.680Z,16.90
2018-05-06T21:58:51.733Z,16.90
2018-05-06T22:01:21.745Z,16.90
2018-05-06T22:03:50.317Z,16.80
2018-05-06T22:06:18.651Z,16.70
2018-05-06T22:08:46.539Z,16.70
2018-05-06T22:11:14.533Z,16.70
2018-05-06T22:13:42.991Z,16.70
2018-05-06T22:16:11.516Z,16.60
2018-05-06T22:18:39.930Z,16.60
2018-05-06T22:21:08.364Z,16.60
2018-05-06T22:23:36.640Z,16.60
2018-05-06T22:26:05.433Z,16.60
2018-05-06T22:28:33.665Z,16.50
2018-05-06T22:31:02.417Z,16.50
2018-05-06T22:33:31.381Z,16.50
2018-05-06T22:35:59.337Z,16.40
2018-05-06T22:38:27.082Z,16.40
2018-05-06T22:40:55.801Z,16.30
2018-05-06T22:43:24.337Z,16.30
2018-05-06T22:45:52.421Z,16.30
2018-05-06T22:48:20.960Z,16.20
2018-05-06T22:50:48.832Z,16.20
2018-05-06T22:53:16.690Z,16.20
2018-05-06T22:55:44.464Z,16.10
2018-05-06T22:58:12.326Z,16.10
2018-05-06T23:00:40.688Z,16.10
2018-05-06T23:03:08.456Z,16.10
2018-05-06T23:05:36.675Z,16.00
2018-05-06T23:08:04.612Z,16.00
2018-05-06T23:10:32.404Z,15.90
2018-05-06T23:13:01.064Z,15.90
2018-05-06T23:15:28.929Z,15.90
2018-05-06T23:17:56.796Z,15.90
2018-05-06T23:20:24.662Z,15.90
2018-05-06T23:22:52.428Z,15.90
2018-05-06T23:25:20.246Z,15.90
2018-05-06T23:27:48.160Z,15.90
2018-05-06T23:30:16.129Z,15.80
2018-05-06T23:32:43.999Z,15.80
2018-05-06T23:35:11.862Z,15.60
2018-05-06T23:37:40.548Z,15.60
2018-05-06T23:40:08.416Z,15.60
2018-05-06T23:42:36.281Z,15.60
2018-05-06T23:45:04.250Z,15.50
2018-05-06T23:47:32.117Z,15.60
2018-05-06T23:50:00.086Z,15.50
2018-05-06T23:52:27.952Z,15.50
2018-05-06T23:54:55.823Z,15.50
2018-05-06T23:57:23.686Z,15.50
2018-05-06T23:59:51.655Z,15.50
